Logo Frankfurt-Egelsbach Airport
Hessische Flugplatz GmbH Egelsbach
Telefon : +49 (0)6103-9418-0
E-Mail : fly@egelsbach-airport.com
   

 

 

 

 

 

 

Aktuelle Daten

Öffnungszeiten: 0800 LT - ECET (max 2100 LT)

PPR: 0700 LT - 0800 LT, ECET - 2100 LT Tel +49 6103 9418-0

Behördlich vorgeschriebenes Briefing für NVFR-Anflüge mit Jets und Turboprops für die Saison 2015/2016

» Behördlich vorgeschriebenes Briefing für NVFR-Anflüge mit Jets und Turboprops für die Saison 2015/2016

 

Webcam

Webcam

Wetterdaten

Beobachtung von : 26-JUN-2016 - 08:00 UTC
Sicht : ausgefallen
Wolkenuntergrenze : nicht feststellbar
Wind : 230 / 4 kt
Wind extrem (10 min) : 200-280 / 3-9 kt
Temperatur : 17.8° Celsius
Taupunkt : 12.2° Celsius
QNH : 1019.1 hPa
Dichtehöhe : 650 ft

Daten werden automatisch generiert. Verfügbarkeit und Richtigkeit ohne Gewähr.
Mit freundlicher Unterstützung des Deutschen Wetterdienstes

Metar


754
SADL31 EDFE 260750
METAR EDFE 260750Z 23005KT 9999 SCT018 18/12 Q1019=

Notam

Zur Zeit liegen keine NOTAM Meldungen vor.